Time;durP1;ratioP1;P1;durP2;ratioP2;P2;SDS_P1;SDS_P2;PMS_P1;PMS_P2;Temp;Humidity;BMP_temperature;BMP_pressure;BME280_temperature;BME280_humidity;BME280_pressure;Samples;Min_cycle;Max_cycle;Signal;HPM_P1;HPM_P2
2022/09/03 00:00:54;;;;;;;0.67;0.67;;;18.00;62.90;18.20;96245.00;;;;5096029;28;20219;-81
2022/09/03 00:03:29;;;;;;;0.80;0.80;;;17.90;62.80;18.20;96244.00;;;;5095884;28;20326;-82
2022/09/03 00:06:16;;;;;;;0.70;0.70;;;17.90;62.90;18.20;96242.00;;;;5096757;28;20198;-82
2022/09/03 00:08:50;;;;;;;1.00;0.60;;;17.90;63.20;18.20;96238.00;;;;5096868;28;20203;-82
2022/09/03 00:11:22;;;;;;;0.60;0.60;;;17.90;63.20;18.20;96234.00;;;;5097140;28;20252;-82
2022/09/03 00:14:01;;;;;;;1.10;0.50;;;17.90;63.40;18.20;96246.00;;;;5096426;28;20207;-82
2022/09/03 00:16:44;;;;;;;1.27;0.77;;;17.90;63.70;18.30;96245.00;;;;5096442;28;20203;-82
2022/09/03 00:19:16;;;;;;;1.17;0.80;;;17.90;63.80;18.30;96238.00;;;;5097283;28;20858;-83
2022/09/03 00:21:48;;;;;;;0.60;0.60;;;17.90;63.80;18.30;96236.00;;;;5097038;28;20303;-83
2022/09/03 00:24:23;;;;;;;0.73;0.73;;;17.90;63.90;18.40;96234.00;;;;5096781;28;20179;-83
2022/09/03 00:26:57;;;;;;;0.83;0.77;;;17.90;64.00;18.40;96236.00;;;;5095633;28;20743;-83
2022/09/03 00:29:33;;;;;;;0.70;0.70;;;17.90;64.20;18.40;96232.00;;;;5096298;28;20302;-83
2022/09/03 00:32:10;;;;;;;0.87;0.60;;;18.00;64.50;18.50;96241.00;;;;5096333;28;20202;-83
2022/09/03 00:34:43;;;;;;;0.70;0.70;;;18.00;64.40;18.50;96239.00;;;;5096318;28;20248;-83
2022/09/03 00:37:12;;;;;;;0.70;0.70;;;18.00;64.30;18.50;96246.00;;;;5095397;28;20613;-83
2022/09/03 00:39:40;;;;;;;1.40;0.90;;;18.10;64.30;18.50;96244.00;;;;5097058;28;20710;-83
2022/09/03 00:42:39;;;;;;;0.67;0.67;;;18.10;64.20;18.60;96245.00;;;;5097535;28;20774;-83
2022/09/03 00:45:32;;;;;;;0.60;0.60;;;18.10;64.40;18.60;96245.00;;;;5097753;28;20194;-82
2022/09/03 00:48:18;;;;;;;1.13;0.77;;;18.20;64.10;18.60;96247.00;;;;5097273;28;20184;-83
2022/09/03 00:51:09;;;;;;;1.00;0.90;;;18.20;64.10;18.60;96262.00;;;;5097180;28;20765;-83
2022/09/03 00:53:52;;;;;;;1.33;0.83;;;18.20;63.80;18.70;96249.00;;;;5097296;28;20180;-83
2022/09/03 00:56:35;;;;;;;0.80;0.80;;;18.20;63.70;18.70;96248.00;;;;5097123;28;20203;-82
2022/09/03 00:59:26;;;;;;;2.13;0.80;;;18.20;63.80;18.70;96242.00;;;;5096972;28;20210;-83
2022/09/03 01:02:12;;;;;;;0.80;0.80;;;18.30;63.90;18.80;96230.00;;;;5091340;28;20319;-83
2022/09/03 01:05:00;;;;;;;0.90;0.80;;;18.30;64.00;18.80;96220.00;;;;5076206;28;20192;-82
2022/09/03 01:07:40;;;;;;;1.13;0.83;;;18.30;64.00;18.80;96227.00;;;;5077776;28;20196;-82
2022/09/03 01:10:30;;;;;;;1.17;0.73;;;18.30;64.20;18.80;96241.00;;;;5077803;28;20216;-83
2022/09/03 01:13:08;;;;;;;0.97;0.87;;;18.40;64.40;18.90;96247.00;;;;5077253;28;20196;-82
2022/09/03 01:15:47;;;;;;;0.70;0.70;;;18.40;64.30;18.90;96241.00;;;;5077400;28;20290;-82
2022/09/03 01:18:28;;;;;;;0.53;0.50;;;18.40;64.40;18.90;96249.00;;;;5078131;28;20184;-83
2022/09/03 01:21:39;;;;;;;0.90;0.90;;;18.40;65.20;18.90;96250.00;;;;5077225;28;20763;-83
2022/09/03 01:24:46;;;;;;;0.70;0.70;;;18.40;64.40;18.90;96241.00;;;;5076510;28;20587;-83
2022/09/03 01:27:35;;;;;;;0.63;0.63;;;18.40;64.60;19.00;96247.00;;;;5075720;28;20207;-83
2022/09/03 01:30:09;;;;;;;1.57;0.77;;;18.50;64.50;19.00;96244.00;;;;5076164;28;20278;-83
2022/09/03 01:32:48;;;;;;;0.70;0.70;;;18.50;64.40;19.00;96242.00;;;;5086925;28;20202;-83
2022/09/03 01:35:26;;;;;;;0.60;0.60;;;18.50;64.30;19.00;96247.00;;;;5095475;28;20175;-83
2022/09/03 01:38:12;;;;;;;0.77;0.70;;;18.50;64.30;19.00;96245.00;;;;5094632;28;20221;-83
2022/09/03 01:40:52;;;;;;;1.00;0.90;;;18.50;64.30;19.10;96241.00;;;;5094516;28;20253;-83
2022/09/03 01:43:46;;;;;;;0.80;0.80;;;18.50;64.20;19.10;96248.00;;;;5094057;28;20843;-83
2022/09/03 01:46:26;;;;;;;0.90;0.90;;;18.60;64.40;19.10;96242.00;;;;5094389;28;20199;-83
2022/09/03 01:49:06;;;;;;;0.80;0.80;;;18.60;64.30;19.10;96236.00;;;;5093962;28;20294;-83
2022/09/03 01:51:34;;;;;;;1.50;0.80;;;18.60;64.20;19.10;96234.00;;;;5095557;28;20222;-83
2022/09/03 01:54:44;;;;;;;1.37;0.80;;;18.60;64.30;19.10;96242.00;;;;5095473;28;20563;-83
2022/09/03 01:57:44;;;;;;;0.83;0.73;;;18.60;64.00;19.10;96245.00;;;;5096044;28;20202;-83
2022/09/03 02:00:14;;;;;;;1.27;1.10;;;18.60;64.10;19.00;96245.00;;;;5095168;28;20583;-83
2022/09/03 02:02:46;;;;;;;1.67;1.00;;;18.60;63.90;19.00;96248.00;;;;5096097;28;20245;-83
2022/09/03 02:05:19;;;;;;;2.90;0.90;;;18.50;64.10;19.10;96248.00;;;;5095162;28;20195;-83
2022/09/03 02:07:50;;;;;;;0.70;0.70;;;18.60;64.10;19.00;96239.00;;;;5095449;28;20184;-83
2022/09/03 02:10:21;;;;;;;0.73;0.67;;;18.60;64.10;19.10;96242.00;;;;5095166;28;20226;-83
2022/09/03 02:12:54;;;;;;;0.80;0.80;;;18.60;64.10;19.10;96242.00;;;;5094542;28;20191;-83
2022/09/03 02:15:25;;;;;;;0.93;0.93;;;18.60;64.20;19.10;96237.00;;;;5094313;28;20199;-83
2022/09/03 02:18:01;;;;;;;0.63;0.63;;;18.60;64.30;19.10;96235.00;;;;5094731;28;20191;-83
2022/09/03 02:20:29;;;;;;;0.80;0.80;;;18.60;65.10;19.10;96240.00;;;;5093637;28;20268;-83
2022/09/03 02:22:58;;;;;;;0.50;0.50;;;18.60;64.20;19.00;96237.00;;;;5093746;28;20342;-83
2022/09/03 02:25:35;;;;;;;1.53;0.87;;;18.60;64.10;19.00;96227.00;;;;5094682;28;20260;-83
2022/09/03 02:28:04;;;;;;;1.77;1.00;;;18.60;64.30;19.00;96216.00;;;;5093858;28;20205;-84
2022/09/03 02:30:32;;;;;;;0.90;0.90;;;18.60;64.20;19.00;96227.00;;;;5092018;28;20223;-84
2022/09/03 02:33:01;;;;;;;0.83;0.80;;;18.50;64.10;19.00;96228.00;;;;5091612;28;20290;-83
2022/09/03 02:35:29;;;;;;;1.50;0.87;;;18.50;64.00;19.00;96222.00;;;;5092187;28;20198;-84
2022/09/03 02:38:11;;;;;;;0.87;0.60;;;18.50;63.90;18.90;96236.00;;;;5092600;28;20203;-83
2022/09/03 02:40:39;;;;;;;0.80;0.80;;;18.50;63.80;18.90;96234.00;;;;5091684;28;20273;-83
2022/09/03 02:43:19;;;;;;;0.70;0.70;;;18.50;63.80;18.90;96238.00;;;;5092163;28;20284;-84
2022/09/03 02:45:52;;;;;;;0.90;0.80;;;18.50;64.00;18.90;96234.00;;;;5090402;28;20294;-83
2022/09/03 02:48:25;;;;;;;0.60;0.60;;;18.40;63.90;18.80;96234.00;;;;5090956;28;20199;-84
2022/09/03 02:50:52;;;;;;;1.07;0.70;;;18.40;64.10;18.80;96228.00;;;;5090885;28;20223;-84
2022/09/03 02:53:19;;;;;;;1.27;0.87;;;18.40;64.10;18.80;96227.00;;;;5090940;28;20230;-84
2022/09/03 02:55:47;;;;;;;0.80;0.80;;;18.30;64.10;18.70;96219.00;;;;5090034;28;20256;-84
2022/09/03 02:58:14;;;;;;;0.90;0.90;;;18.30;64.20;18.70;96221.00;;;;5091155;28;20198;-84
2022/09/03 03:00:41;;;;;;;2.00;0.93;;;18.30;64.30;18.60;96233.00;;;;5094413;28;20624;-84
2022/09/03 03:03:09;;;;;;;0.80;0.80;;;18.20;64.30;18.60;96219.00;;;;5096125;28;20614;-84
2022/09/03 03:05:48;;;;;;;1.20;1.00;;;18.20;64.30;18.60;96232.00;;;;5097091;28;20203;-83
2022/09/03 03:08:20;;;;;;;1.03;0.97;;;18.20;64.60;18.50;96237.00;;;;5098557;28;20233;-83
2022/09/03 03:10:49;;;;;;;0.70;0.70;;;18.10;64.50;18.50;96233.00;;;;5097644;28;20229;-83
2022/09/03 03:13:17;;;;;;;1.50;0.83;;;18.10;64.60;18.50;96228.00;;;;5098772;28;20217;-83
2022/09/03 03:15:45;;;;;;;0.70;0.70;;;18.10;64.70;18.50;96237.00;;;;5097116;28;20195;-83
2022/09/03 03:18:12;;;;;;;1.17;0.97;;;18.10;64.70;18.50;96234.00;;;;5096138;28;20195;-83
2022/09/03 03:20:42;;;;;;;1.10;0.77;;;18.10;64.60;18.50;96240.00;;;;5094948;28;20580;-83
2022/09/03 03:23:10;;;;;;;0.83;0.80;;;18.10;64.70;18.40;96242.00;;;;5094686;28;20226;-83
2022/09/03 03:25:40;;;;;;;0.90;0.90;;;18.00;64.70;18.40;96241.00;;;;5094294;28;20204;-83
2022/09/03 03:28:08;;;;;;;0.97;0.97;;;18.00;64.70;18.40;96241.00;;;;5094553;28;20214;-83
2022/09/03 03:30:38;;;;;;;1.60;0.90;;;18.00;64.70;18.40;96244.00;;;;5093920;28;20223;-83
2022/09/03 03:33:06;;;;;;;0.87;0.87;;;18.00;64.80;18.30;96243.00;;;;5094309;28;20222;-84
2022/09/03 03:35:33;;;;;;;0.80;0.80;;;17.90;64.80;18.30;96241.00;;;;5094867;28;20248;-84
2022/09/03 03:38:03;;;;;;;0.80;0.80;;;17.90;64.80;18.30;96238.00;;;;5095341;28;20245;-84
2022/09/03 03:40:30;;;;;;;1.00;1.00;;;17.90;64.90;18.20;96240.00;;;;5095536;28;20223;-84
2022/09/03 03:42:59;;;;;;;1.00;0.90;;;17.90;64.90;18.20;96230.00;;;;5095810;28;20662;-83
2022/09/03 03:45:26;;;;;;;0.90;0.80;;;17.80;65.10;18.20;96229.00;;;;5096191;28;20282;-83
2022/09/03 03:47:58;;;;;;;2.10;1.00;;;17.80;65.20;18.10;96238.00;;;;5095634;28;20230;-84
2022/09/03 03:50:26;;;;;;;0.97;0.97;;;17.80;65.50;18.10;96245.00;;;;5096519;28;20226;-83
2022/09/03 03:52:59;;;;;;;0.90;0.90;;;17.70;65.50;18.10;96241.00;;;;5097126;28;20275;-83
2022/09/03 03:55:30;;;;;;;0.60;0.60;;;17.70;65.70;18.00;96239.00;;;;5096375;28;20261;-83
2022/09/03 03:57:59;;;;;;;0.83;0.83;;;17.70;65.80;18.00;96238.00;;;;5096067;28;20199;-83
2022/09/03 04:00:26;;;;;;;1.20;0.90;;;17.70;65.90;18.00;96234.00;;;;5095966;28;20215;-83
2022/09/03 04:02:55;;;;;;;0.90;0.90;;;17.60;65.90;18.00;96240.00;;;;5095622;28;20227;-83
2022/09/03 04:05:23;;;;;;;0.97;0.70;;;17.60;65.90;17.90;96235.00;;;;5094717;28;20610;-83
2022/09/03 04:07:50;;;;;;;0.77;0.77;;;17.60;66.00;17.90;96235.00;;;;5095265;28;20853;-83
2022/09/03 04:10:17;;;;;;;2.03;0.90;;;17.50;66.00;17.90;96222.00;;;;5094518;28;20211;-83
2022/09/03 04:12:47;;;;;;;1.80;1.00;;;17.50;66.10;17.80;96220.00;;;;5095538;28;20729;-83
2022/09/03 04:15:14;;;;;;;2.90;0.90;;;17.50;66.20;17.80;96214.00;;;;5094691;28;20648;-83
2022/09/03 04:17:47;;;;;;;0.90;0.90;;;17.50;66.30;17.80;96219.00;;;;5095207;28;20286;-83
2022/09/03 04:20:17;;;;;;;0.80;0.80;;;17.40;66.40;17.80;96217.00;;;;5094932;28;20269;-83
2022/09/03 04:22:45;;;;;;;1.03;0.87;;;17.40;66.40;17.80;96222.00;;;;5094967;28;20284;-83
2022/09/03 04:25:15;;;;;;;1.13;1.10;;;17.40;66.40;17.80;96215.00;;;;5094046;28;20252;-83
2022/09/03 04:32:55;;;;;;;1.47;1.20;;;17.40;66.70;17.70;96231.00;;;;5075135;28;20223;-83
2022/09/03 04:35:32;;;;;;;0.90;0.90;;;17.40;66.70;17.70;96222.00;;;;5076653;28;20238;-81
2022/09/03 04:37:59;;;;;;;0.90;0.90;;;17.30;66.60;17.70;96234.00;;;;5076503;28;20621;-81
2022/09/03 04:40:27;;;;;;;0.90;0.80;;;17.30;66.60;17.70;96222.00;;;;5075236;28;20223;-81
2022/09/03 04:42:59;;;;;;;1.30;1.00;;;17.30;66.60;17.70;96238.00;;;;5077268;28;20245;-80
2022/09/03 04:45:27;;;;;;;0.97;0.87;;;17.30;66.60;17.60;96233.00;;;;5075732;28;20667;-81
2022/09/03 04:48:00;;;;;;;0.90;0.90;;;17.30;66.60;17.60;96244.00;;;;5076236;28;20200;-81
2022/09/03 04:50:34;;;;;;;1.10;1.00;;;17.30;66.70;17.60;96243.00;;;;5076577;28;20669;-81
2022/09/03 04:53:05;;;;;;;1.10;1.00;;;17.20;66.70;17.60;96241.00;;;;5076463;28;20469;-81
2022/09/03 04:55:35;;;;;;;0.70;0.70;;;17.20;66.90;17.60;96260.00;;;;5075681;28;20204;-81
2022/09/03 04:58:06;;;;;;;1.20;1.20;;;17.20;67.00;17.60;96263.00;;;;5075751;28;20200;-81
2022/09/03 05:00:46;;;;;;;1.13;0.83;;;17.20;67.10;17.60;96268.00;;;;5075469;28;20698;-81
2022/09/03 05:03:15;;;;;;;0.80;0.80;;;17.20;67.20;17.60;96266.00;;;;5076014;28;20880;-81
2022/09/03 05:05:42;;;;;;;0.90;0.90;;;17.20;67.50;17.60;96271.00;;;;5075422;28;20225;-81
2022/09/03 05:08:10;;;;;;;1.20;0.97;;;17.20;67.60;17.60;96265.00;;;;5075933;28;20227;-81
2022/09/03 05:10:39;;;;;;;1.23;1.13;;;17.20;67.70;17.70;96255.00;;;;5075291;28;20893;-81
2022/09/03 05:13:07;;;;;;;1.40;1.03;;;17.20;67.80;17.70;96267.00;;;;5075560;28;20200;-81
2022/09/03 05:15:37;;;;;;;2.97;1.03;;;17.20;68.60;17.70;96264.00;;;;5074920;28;20230;-81
2022/09/03 05:18:04;;;;;;;2.10;1.00;;;17.30;67.90;17.80;96269.00;;;;5075346;28;20238;-81
2022/09/03 05:20:34;;;;;;;1.10;1.00;;;17.30;68.20;17.80;96277.00;;;;5073909;28;20243;-82
2022/09/03 05:23:03;;;;;;;2.03;0.80;;;17.30;68.40;17.90;96273.00;;;;5074311;28;20215;-81
2022/09/03 05:25:33;;;;;;;1.10;1.10;;;17.40;68.60;18.00;96274.00;;;;5075297;28;20227;-81
2022/09/03 05:28:02;;;;;;;1.60;0.90;;;17.40;68.70;18.00;96276.00;;;;5074828;28;20219;-82
2022/09/03 05:30:32;;;;;;;0.97;0.97;;;17.50;68.80;18.10;96285.00;;;;5073141;28;20235;-81
2022/09/03 05:33:01;;;;;;;0.93;0.90;;;17.50;68.80;18.20;96289.00;;;;5074428;28;20208;-81
2022/09/03 05:35:31;;;;;;;0.90;0.90;;;17.60;68.90;18.20;96276.00;;;;5074612;28;20204;-82
2022/09/03 05:38:01;;;;;;;1.03;0.87;;;17.60;68.70;18.30;96287.00;;;;5073854;28;20737;-81
2022/09/03 05:40:28;;;;;;;1.23;0.97;;;17.70;68.50;18.40;96279.00;;;;5071913;28;20316;-81
2022/09/03 05:42:58;;;;;;;0.93;0.93;;;17.70;68.30;18.40;96276.00;;;;5073283;28;20230;-81
2022/09/03 05:45:25;;;;;;;1.07;1.07;;;17.80;68.40;18.50;96271.00;;;;5074317;28;20242;-81
2022/09/03 05:47:53;;;;;;;2.50;1.03;;;17.90;68.50;18.50;96279.00;;;;5075158;28;20610;-81
2022/09/03 05:50:20;;;;;;;1.10;1.00;;;17.90;68.50;18.60;96288.00;;;;5074464;28;20557;-81
2022/09/03 05:52:50;;;;;;;1.23;1.13;;;18.00;68.30;18.60;96288.00;;;;5073509;28;20222;-81
2022/09/03 05:55:18;;;;;;;1.50;1.00;;;18.00;67.90;18.70;96295.00;;;;5075786;28;20571;-81
2022/09/03 05:57:53;;;;;;;1.17;0.80;;;18.10;67.80;18.70;96297.00;;;;5074466;28;20200;-81
2022/09/03 06:00:21;;;;;;;1.50;0.90;;;18.20;67.60;18.80;96296.00;;;;5074087;28;20412;-81
2022/09/03 06:02:53;;;;;;;0.83;0.83;;;18.20;67.60;18.80;96299.00;;;;5075893;28;20200;-81
2022/09/03 06:05:21;;;;;;;1.87;0.80;;;18.30;67.50;18.90;96310.00;;;;5074946;28;20306;-81
2022/09/03 06:07:49;;;;;;;1.33;0.80;;;18.30;67.50;18.90;96316.00;;;;5074815;28;20223;-81
2022/09/03 06:10:20;;;;;;;1.00;1.00;;;18.30;67.40;19.00;96308.00;;;;5074734;28;20216;-81
2022/09/03 06:12:52;;;;;;;1.10;1.00;;;18.40;67.20;19.00;96300.00;;;;5074426;28;20204;-81
2022/09/03 06:15:19;;;;;;;1.80;1.23;;;18.40;66.60;19.10;96299.00;;;;5074533;28;20622;-81
2022/09/03 06:17:46;;;;;;;1.00;1.00;;;18.50;66.40;19.10;96291.00;;;;5074240;28;20679;-81
2022/09/03 06:20:17;;;;;;;1.33;1.23;;;18.50;66.20;19.10;96285.00;;;;5075045;28;20230;-81
2022/09/03 06:22:52;;;;;;;1.27;1.17;;;18.60;65.90;19.20;96280.00;;;;5074792;28;20282;-81
2022/09/03 06:25:21;;;;;;;1.60;0.97;;;18.60;66.80;19.20;96296.00;;;;5073967;28;20741;-81
2022/09/03 06:27:49;;;;;;;1.63;0.80;;;18.60;66.10;19.20;96292.00;;;;5074688;28;20253;-81
2022/09/03 06:30:17;;;;;;;0.80;0.80;;;18.70;66.10;19.30;96289.00;;;;5074848;28;20297;-81
2022/09/03 06:32:49;;;;;;;1.40;1.30;;;18.70;65.90;19.30;96287.00;;;;5074656;28;20220;-81
2022/09/03 06:35:16;;;;;;;1.57;1.47;;;18.80;65.90;19.40;96290.00;;;;5073669;28;20656;-82
2022/09/03 06:37:47;;;;;;;1.20;1.10;;;18.80;65.70;19.40;96292.00;;;;5073208;28;20203;-82
2022/09/03 06:40:21;;;;;;;1.60;1.50;;;18.90;65.60;19.50;96296.00;;;;5071752;28;20215;-81
2022/09/03 06:42:59;;;;;;;1.17;1.07;;;18.90;65.40;19.60;96305.00;;;;5072166;28;20196;-82
2022/09/03 06:45:27;;;;;;;0.90;0.90;;;19.00;65.40;19.60;96308.00;;;;5071581;28;20227;-82
2022/09/03 06:47:55;;;;;;;0.80;0.80;;;19.10;65.70;19.70;96312.00;;;;5073226;28;20200;-82
2022/09/03 06:50:23;;;;;;;0.90;0.90;;;19.10;65.50;19.80;96320.00;;;;5072601;28;20269;-82
2022/09/03 06:52:54;;;;;;;0.97;0.97;;;19.20;65.60;19.90;96320.00;;;;5072774;28;20195;-82
2022/09/03 06:55:24;;;;;;;1.00;1.00;;;19.30;65.40;19.90;96330.00;;;;5071994;28;20208;-82
2022/09/03 06:57:56;;;;;;;0.97;0.97;;;19.40;65.60;20.10;96336.00;;;;5071784;28;20203;-82
2022/09/03 07:00:24;;;;;;;1.20;1.10;;;19.50;65.90;20.20;96342.00;;;;5071515;28;20228;-82
2022/09/03 07:03:01;;;;;;;1.27;1.17;;;19.50;65.90;20.30;96346.00;;;;5072039;28;20247;-82
2022/09/03 07:05:29;;;;;;;1.23;1.17;;;19.60;65.60;20.30;96352.00;;;;5071650;28;20223;-82
2022/09/03 07:07:57;;;;;;;2.30;1.10;;;19.70;65.60;20.40;96344.00;;;;5072605;28;20226;-82
2022/09/03 07:10:24;;;;;;;0.97;0.97;;;19.70;65.30;20.40;96345.00;;;;5071746;28;20216;-82
2022/09/03 07:12:55;;;;;;;0.93;0.93;;;19.80;65.40;20.50;96348.00;;;;5071589;28;20222;-82
2022/09/03 07:15:22;;;;;;;1.20;1.10;;;19.80;65.50;20.50;96338.00;;;;5071559;28;20642;-82
2022/09/03 07:17:50;;;;;;;1.27;1.20;;;19.90;65.30;20.60;96341.00;;;;5072103;28;20196;-82
2022/09/03 07:20:18;;;;;;;0.80;0.80;;;19.90;65.00;20.70;96347.00;;;;5072006;28;20224;-82
2022/09/03 07:22:46;;;;;;;1.80;1.20;;;20.00;65.20;20.70;96355.00;;;;5072600;28;20295;-82
2022/09/03 07:25:13;;;;;;;1.00;1.00;;;20.00;65.10;20.80;96357.00;;;;5072114;28;20211;-82
2022/09/03 07:27:43;;;;;;;1.60;1.40;;;20.10;65.00;20.90;96365.00;;;;5072450;28;20230;-82
2022/09/03 07:30:13;;;;;;;1.33;1.10;;;20.20;64.80;21.00;96355.00;;;;5071153;28;20295;-82
2022/09/03 07:32:40;;;;;;;1.47;1.30;;;20.20;64.50;21.10;96355.00;;;;5071678;28;20715;-82
2022/09/03 07:35:08;;;;;;;2.23;1.27;;;20.30;64.60;21.20;96358.00;;;;5073504;28;20627;-81
2022/09/03 07:37:43;;;;;;;1.27;1.20;;;20.40;64.50;21.30;96349.00;;;;5073651;28;20261;-82
2022/09/03 07:40:14;;;;;;;1.30;1.20;;;20.50;64.20;21.40;96357.00;;;;5069944;28;20219;-83
2022/09/03 07:42:41;;;;;;;3.13;2.40;;;20.60;64.40;21.50;96355.00;;;;5070056;28;20649;-82
2022/09/03 07:45:10;;;;;;;2.00;1.57;;;20.60;64.30;21.50;96348.00;;;;5072277;28;20221;-82
2022/09/03 07:47:50;;;;;;;1.43;1.20;;;20.70;64.30;21.60;96337.00;;;;5074751;28;20208;-83
2022/09/03 07:50:17;;;;;;;1.13;1.10;;;20.70;64.10;21.60;96344.00;;;;5074068;28;20216;-82
2022/09/03 07:52:50;;;;;;;1.00;1.00;;;20.80;64.30;21.60;96339.00;;;;5076172;28;20206;-82
2022/09/03 07:55:25;;;;;;;1.20;1.10;;;20.80;64.20;21.60;96344.00;;;;5075685;28;20677;-82
2022/09/03 07:57:59;;;;;;;1.83;1.20;;;20.90;64.30;21.70;96342.00;;;;5076143;28;20208;-82
2022/09/03 08:00:31;;;;;;;1.00;1.00;;;20.90;64.20;21.70;96346.00;;;;5075911;28;20241;-82
2022/09/03 08:03:07;;;;;;;1.27;1.17;;;20.90;63.90;21.70;96349.00;;;;5075905;28;20249;-82
2022/09/03 08:05:37;;;;;;;1.37;1.27;;;21.00;63.50;21.70;96343.00;;;;5076047;28;20306;-82
2022/09/03 08:08:07;;;;;;;1.23;1.20;;;21.00;63.40;21.70;96346.00;;;;5074923;28;20208;-82
2022/09/03 08:10:40;;;;;;;1.40;1.30;;;21.00;63.00;21.70;96342.00;;;;5074717;28;20697;-82
2022/09/03 08:13:09;;;;;;;1.67;1.57;;;21.10;62.90;21.70;96342.00;;;;5074379;28;20203;-82
2022/09/03 08:15:41;;;;;;;1.10;1.10;;;21.10;62.60;21.70;96345.00;;;;5073491;28;20267;-83
2022/09/03 08:18:11;;;;;;;1.57;1.47;;;21.10;62.60;21.70;96349.00;;;;5073458;28;20199;-82
2022/09/03 08:20:39;;;;;;;1.67;1.57;;;21.10;62.50;21.70;96353.00;;;;5072736;28;20269;-82
2022/09/03 08:23:09;;;;;;;1.00;1.00;;;21.10;62.30;21.70;96354.00;;;;5069978;28;20198;-83
2022/09/03 08:25:41;;;;;;;1.60;1.50;;;21.10;62.40;21.70;96353.00;;;;5070977;28;20305;-82
2022/09/03 08:28:09;;;;;;;1.60;1.50;;;21.10;62.50;21.80;96353.00;;;;5070923;28;20194;-83
2022/09/03 08:30:39;;;;;;;2.00;1.20;;;21.20;62.80;21.80;96348.00;;;;5071216;28;20632;-83
2022/09/03 08:33:07;;;;;;;1.03;1.03;;;21.20;63.10;21.90;96341.00;;;;5071560;28;20287;-83
2022/09/03 08:35:37;;;;;;;1.67;1.57;;;21.20;63.20;21.90;96358.00;;;;5071158;28;20204;-82
2022/09/03 08:38:05;;;;;;;1.63;1.53;;;21.20;62.50;21.80;96351.00;;;;5073197;28;20241;-82
2022/09/03 08:40:37;;;;;;;1.70;1.60;;;21.30;62.30;21.80;96355.00;;;;5071780;28;20318;-82
2022/09/03 08:43:19;;;;;;;1.87;1.60;;;21.30;62.10;21.80;96349.00;;;;5072940;28;20591;-83
2022/09/03 08:45:46;;;;;;;1.63;1.53;;;21.30;62.10;21.80;96353.00;;;;5072468;28;20226;-82
2022/09/03 08:48:19;;;;;;;2.10;1.90;;;21.30;62.10;21.80;96354.00;;;;5073225;28;20208;-82
2022/09/03 08:50:57;;;;;;;1.77;1.67;;;21.30;61.80;21.80;96363.00;;;;5074112;28;20691;-82
2022/09/03 08:53:40;;;;;;;1.73;1.63;;;21.30;61.90;21.80;96373.00;;;;5073766;28;20218;-82
2022/09/03 08:56:21;;;;;;;3.07;1.57;;;21.30;62.20;21.90;96375.00;;;;5072645;28;20199;-82
2022/09/03 08:58:48;;;;;;;1.60;1.50;;;21.30;62.30;22.00;96368.00;;;;5072161;28;20195;-82
2022/09/03 09:01:32;;;;;;;1.27;1.27;;;21.40;62.40;22.00;96377.00;;;;5073587;28;20249;-82
2022/09/03 09:04:14;;;;;;;1.30;1.20;;;21.40;62.30;22.10;96376.00;;;;5072258;28;20230;-82
2022/09/03 09:06:56;;;;;;;1.40;1.30;;;21.50;62.60;22.20;96375.00;;;;5072674;28;20191;-85
2022/09/03 09:09:38;;;;;;;1.70;1.60;;;21.50;63.00;22.30;96376.00;;;;5073687;28;20219;-84
2022/09/03 09:12:28;;;;;;;1.57;1.47;;;21.60;63.00;22.50;96377.00;;;;5074288;28;20213;-84
2022/09/03 09:15:14;;;;;;;2.63;1.30;;;21.70;63.40;22.80;96360.00;;;;5072735;28;20184;-84
2022/09/03 09:18:03;;;;;;;1.57;1.47;;;21.80;63.20;23.00;96363.00;;;;5074195;28;20233;-84
2022/09/03 09:20:43;;;;;;;2.33;1.37;;;22.00;63.00;23.10;96357.00;;;;5073057;28;20719;-85
2022/09/03 09:23:19;;;;;;;1.43;1.33;;;22.10;62.90;23.20;96356.00;;;;5073189;28;20199;-84
2022/09/03 09:25:51;;;;;;;1.47;1.37;;;22.20;62.60;23.30;96360.00;;;;5072457;28;20276;-85
2022/09/03 09:28:21;;;;;;;1.30;1.20;;;22.30;62.20;23.40;96351.00;;;;5073294;28;20200;-84
2022/09/03 09:30:51;;;;;;;1.77;1.50;;;22.40;62.40;23.60;96356.00;;;;5072431;28;20281;-84
2022/09/03 09:33:23;;;;;;;1.50;1.40;;;22.50;62.70;23.70;96345.00;;;;5073122;28;20216;-84
2022/09/03 09:35:50;;;;;;;1.60;1.50;;;22.70;62.60;23.80;96349.00;;;;5072808;28;20200;-85
2022/09/03 09:38:29;;;;;;;2.43;1.90;;;22.80;62.40;23.90;96352.00;;;;5072684;28;20695;-85
2022/09/03 09:41:08;;;;;;;1.20;1.10;;;22.90;62.20;24.10;96351.00;;;;5072113;28;20215;-85
2022/09/03 09:43:38;;;;;;;1.60;1.50;;;23.00;62.80;24.40;96352.00;;;;5072132;28;20282;-85
2022/09/03 09:46:14;;;;;;;1.63;1.40;;;23.20;62.90;24.50;96351.00;;;;5070266;28;20235;-84
2022/09/03 09:48:53;;;;;;;1.37;1.27;;;23.30;61.50;24.70;96353.00;;;;5070166;28;20213;-85
2022/09/03 09:51:29;;;;;;;1.60;1.50;;;23.50;62.00;24.80;96357.00;;;;5071615;28;20944;-85
2022/09/03 09:54:20;;;;;;;1.67;1.47;;;23.60;62.20;25.00;96361.00;;;;5071445;28;20539;-83
2022/09/03 09:56:59;;;;;;;1.50;1.40;;;23.90;62.00;25.20;96352.00;;;;5070975;28;20308;-85
2022/09/03 09:59:26;;;;;;;1.67;1.57;;;24.00;62.20;25.40;96358.00;;;;5071677;28;20699;-84
2022/09/03 10:02:10;;;;;;;1.60;1.50;;;24.20;61.90;25.50;96350.00;;;;5071838;28;20272;-84
2022/09/03 10:04:39;;;;;;;1.23;1.20;;;24.40;60.90;25.60;96345.00;;;;5071515;28;20806;-84
2022/09/03 10:07:23;;;;;;;1.50;1.40;;;24.50;61.40;25.70;96341.00;;;;5071376;28;20642;-84
2022/09/03 10:10:02;;;;;;;1.17;1.17;;;24.60;61.30;25.90;96349.00;;;;5071375;28;20263;-84
2022/09/03 10:12:36;;;;;;;1.60;1.50;;;24.80;60.80;26.00;96351.00;;;;5071677;28;20199;-85
2022/09/03 10:15:18;;;;;;;1.47;1.37;;;24.90;61.10;26.10;96344.00;;;;5070119;28;20434;-84
2022/09/03 10:17:57;;;;;;;1.50;1.40;;;25.10;60.60;26.20;96347.00;;;;5072110;28;20329;-84
2022/09/03 10:20:36;;;;;;;1.50;1.37;;;25.20;60.40;26.30;96343.00;;;;5069476;28;20264;-84
2022/09/03 10:23:16;;;;;;;1.33;1.23;;;25.30;60.40;26.30;96337.00;;;;5070814;28;20572;-84
2022/09/03 10:26:06;;;;;;;1.40;1.30;;;25.40;60.00;26.40;96333.00;;;;5070439;28;20220;-84
2022/09/03 10:28:40;;;;;;;1.20;1.20;;;25.40;59.60;26.50;96341.00;;;;5118488;22;20230;-84
2022/09/03 10:31:35;;;;;;;1.17;1.07;;;25.50;59.80;26.50;96345.00;;;;5111386;28;20218;-84
2022/09/03 10:34:13;;;;;;;1.40;1.30;;;25.60;59.40;26.60;96346.00;;;;5119143;27;20265;-83
2022/09/03 10:36:57;;;;;;;1.50;1.40;;;25.60;59.60;26.60;96348.00;;;;5131316;27;20197;-83
2022/09/03 10:39:45;;;;;;;1.10;1.10;;;25.70;59.10;26.70;96349.00;;;;5130431;27;20246;-83
2022/09/03 10:42:36;;;;;;;1.57;1.20;;;25.70;58.50;26.70;96347.00;;;;5130070;28;20228;-84
2022/09/03 10:45:18;;;;;;;1.10;1.00;;;25.80;58.80;26.80;96346.00;;;;5129269;28;20300;-83
2022/09/03 10:48:27;;;;;;;1.23;1.13;;;25.80;59.10;26.80;96347.00;;;;5130073;28;20218;-83
2022/09/03 10:51:03;;;;;;;1.10;1.10;;;25.90;58.60;26.90;96348.00;;;;5128204;27;20882;-84
2022/09/03 10:53:48;;;;;;;1.10;1.10;;;26.00;59.30;26.90;96348.00;;;;5130903;28;20232;-83
2022/09/03 10:56:24;;;;;;;1.00;1.00;;;26.00;58.70;26.90;96352.00;;;;5130680;27;20182;-83
2022/09/03 10:59:14;;;;;;;1.37;1.20;;;26.00;58.40;26.90;96351.00;;;;5132189;27;20289;-83
2022/09/03 11:01:55;;;;;;;1.10;1.10;;;26.00;58.20;27.00;96352.00;;;;5127954;28;20678;-83
2022/09/03 11:04:33;;;;;;;1.10;1.10;;;26.10;58.50;27.00;96349.00;;;;5110793;28;20571;-84
2022/09/03 11:07:04;;;;;;;0.93;0.93;;;26.10;58.20;27.00;96352.00;;;;5109166;28;20636;-84
2022/09/03 11:09:40;;;;;;;1.30;1.20;;;26.00;57.90;26.90;96349.00;;;;5109516;28;20201;-84
2022/09/03 11:12:13;;;;;;;1.43;1.20;;;26.00;57.60;26.90;96348.00;;;;5100721;28;20210;-84
2022/09/03 11:14:49;;;;;;;0.90;0.90;;;26.00;57.80;26.90;96345.00;;;;5097755;27;20290;-83
2022/09/03 11:17:25;;;;;;;1.20;1.10;;;26.00;57.40;26.80;96346.00;;;;5108178;28;20226;-84
2022/09/03 11:20:05;;;;;;;1.00;0.90;;;26.00;57.40;26.80;96342.00;;;;5113473;27;20210;-83
2022/09/03 11:22:33;;;;;;;1.50;1.40;;;26.00;57.40;26.80;96338.00;;;;5095833;28;20221;-84
2022/09/03 11:25:04;;;;;;;1.37;1.10;;;26.00;57.40;26.80;96340.00;;;;5114138;28;20238;-83
2022/09/03 11:27:53;;;;;;;1.10;1.00;;;26.00;57.20;26.80;96329.00;;;;5115176;28;20198;-83
2022/09/03 11:30:32;;;;;;;0.80;0.77;;;26.00;56.90;26.80;96331.00;;;;5114416;28;20246;-84